Time;durP1;ratioP1;P1;durP2;ratioP2;P2;SDS_P1;SDS_P2;PMS_P1;PMS_P2;Temp;Humidity;BMP_temperature;BMP_pressure;BME280_temperature;BME280_humidity;BME280_pressure;Samples;Min_cycle;Max_cycle;Signal;HPM_P1;HPM_P2
2021/10/03 00:02:34;;;;;;;15.18;7.97;;;;;;;7.34;100.00;95517.16;10224886;29;20058;-70
2021/10/03 00:07:36;;;;;;;12.90;7.40;;;;;;;7.26;100.00;95520.19;10242138;28;20035;-74
2021/10/03 00:12:38;;;;;;;13.18;6.90;;;;;;;7.25;100.00;95515.88;10239960;28;20027;-69
2021/10/03 00:17:38;;;;;;;21.88;8.15;;;;;;;7.16;100.00;95515.41;10240020;28;20030;-69
2021/10/03 00:22:39;;;;;;;13.38;7.57;;;;;;;7.14;100.00;95501.47;10255978;28;20031;-69
2021/10/03 00:27:44;;;;;;;11.57;8.32;;;;;;;7.16;100.00;95502.06;10241309;28;20035;-72
2021/10/03 00:32:45;;;;;;;15.07;8.13;;;;;;;7.02;100.00;95509.50;10240212;29;20051;-75
2021/10/03 00:37:46;;;;;;;16.17;8.05;;;;;;;7.09;100.00;95498.66;10239088;28;20027;-75
2021/10/03 00:42:46;;;;;;;11.15;7.55;;;;;;;6.93;100.00;95502.84;10240856;28;20026;-72
2021/10/03 00:47:47;;;;;;;14.95;7.57;;;;;;;6.85;100.00;95501.31;10223222;28;20028;-75
2021/10/03 00:52:49;;;;;;;11.40;7.50;;;;;;;6.81;100.00;95510.84;10238877;28;20027;-68
2021/10/03 00:57:51;;;;;;;16.02;8.30;;;;;;;6.70;100.00;95496.44;10240547;28;20042;-76
2021/10/03 01:02:53;;;;;;;10.63;7.40;;;;;;;6.52;100.00;95494.66;10254889;28;20069;-71
2021/10/03 01:07:54;;;;;;;12.40;7.47;;;;;;;6.53;100.00;95492.78;10239622;28;20482;-68
2021/10/03 01:13:03;;;;;;;10.93;7.40;;;;;;;6.44;100.00;95506.47;10254392;28;20055;-74
2021/10/03 01:18:05;;;;;;;13.50;7.38;;;;;;;6.36;100.00;95496.09;10237942;28;20039;-73
2021/10/03 01:23:06;;;;;;;14.38;7.65;;;;;;;6.33;100.00;95493.88;10239414;28;20106;-72
2021/10/03 01:28:08;;;;;;;13.45;7.43;;;;;;;6.32;100.00;95489.59;10237390;28;20369;-74
2021/10/03 01:33:09;;;;;;;13.23;7.80;;;;;;;6.23;100.00;95494.44;10239156;28;20450;-71
2021/10/03 01:38:14;;;;;;;12.75;8.60;;;;;;;6.13;100.00;95483.50;10237958;29;20039;-74
2021/10/03 01:43:16;;;;;;;12.52;6.85;;;;;;;6.07;100.00;95484.38;10238570;28;20093;-73
2021/10/03 01:48:20;;;;;;;11.80;7.38;;;;;;;6.15;100.00;95494.75;10237009;29;20122;-72
2021/10/03 01:53:24;;;;;;;17.88;8.43;;;;;;;6.03;100.00;95493.88;10238339;28;20039;-72
2021/10/03 01:58:29;;;;;;;16.52;9.38;;;;;;;6.08;100.00;95494.03;10237106;28;20125;-74
2021/10/03 02:03:29;;;;;;;16.13;9.13;;;;;;;5.98;100.00;95490.03;10237964;28;20102;-72
2021/10/03 02:08:29;;;;;;;17.80;9.52;;;;;;;5.90;100.00;95489.50;10237784;28;20042;-72
2021/10/03 02:13:30;;;;;;;19.05;8.48;;;;;;;5.87;100.00;95490.78;10236510;28;20027;-73
2021/10/03 02:18:34;;;;;;;13.35;8.60;;;;;;;5.79;100.00;95489.25;10236528;28;20528;-74
2021/10/03 02:23:35;;;;;;;14.05;9.27;;;;;;;5.72;100.00;95488.50;10236569;28;20409;-75
2021/10/03 02:28:36;;;;;;;20.52;8.57;;;;;;;5.84;100.00;95487.75;10236345;28;20023;-75
2021/10/03 02:33:39;;;;;;;19.25;8.32;;;;;;;5.75;100.00;95488.06;10235199;28;20055;-68
2021/10/03 02:38:40;;;;;;;12.85;8.32;;;;;;;5.72;100.00;95479.66;10240284;28;20110;-76
2021/10/03 02:43:43;;;;;;;15.07;8.13;;;;;;;5.55;100.00;95477.59;10243917;29;20502;-75
2021/10/03 02:48:49;;;;;;;15.38;7.43;;;;;;;5.57;100.00;95469.41;10260298;28;20027;-68
2021/10/03 02:53:52;;;;;;;16.60;7.75;;;;;;;5.44;100.00;95486.34;10259789;28;20046;-71
2021/10/03 02:58:53;;;;;;;14.43;7.10;;;;;;;5.43;100.00;95496.22;10243226;28;20027;-72
2021/10/03 03:03:53;;;;;;;11.18;7.47;;;;;;;5.40;100.00;95490.50;10237386;28;20024;-71
2021/10/03 03:08:54;;;;;;;12.00;7.47;;;;;;;5.36;100.00;95490.13;10242560;28;20031;-69
2021/10/03 03:13:55;;;;;;;13.65;7.47;;;;;;;5.30;100.00;95491.84;10219714;28;20036;-70
2021/10/03 03:18:55;;;;;;;10.80;7.95;;;;;;;5.34;100.00;95489.53;10219126;28;20031;-72
2021/10/03 03:23:55;;;;;;;17.95;7.97;;;;;;;5.33;100.00;95487.09;10232600;29;20478;-76
2021/10/03 03:28:56;;;;;;;18.83;7.57;;;;;;;5.27;100.00;95484.28;10243146;28;20023;-68
2021/10/03 03:33:57;;;;;;;12.57;6.75;;;;;;;5.05;100.00;95485.72;10218069;28;20556;-75
2021/10/03 03:38:58;;;;;;;12.02;6.72;;;;;;;4.94;100.00;95480.09;10217943;28;20027;-71
2021/10/03 03:43:58;;;;;;;15.70;8.27;;;;;;;4.79;100.00;95485.75;10233309;29;20405;-76
2021/10/03 03:48:58;;;;;;;10.07;6.70;;;;;;;4.69;100.00;95477.44;10240837;28;20490;-67
2021/10/03 03:53:59;;;;;;;14.07;6.53;;;;;;;4.67;100.00;95481.34;10231731;28;20290;-70
2021/10/03 03:59:00;;;;;;;10.80;6.78;;;;;;;4.73;100.00;95478.63;10200957;29;20287;-74
2021/10/03 04:04:00;;;;;;;12.05;7.13;;;;;;;4.57;100.00;95474.66;10231869;29;20052;-68
2021/10/03 04:09:01;;;;;;;14.18;7.47;;;;;;;4.59;100.00;95482.41;10240719;28;20031;-74
2021/10/03 04:14:01;;;;;;;14.10;7.93;;;;;;;4.56;100.00;95477.53;10217081;28;20174;-72
2021/10/03 04:19:02;;;;;;;12.45;7.57;;;;;;;4.48;100.00;95478.63;10232172;29;20815;-70
2021/10/03 04:24:02;;;;;;;13.52;7.22;;;;;;;4.41;100.00;95488.50;10249006;28;20074;-72
2021/10/03 04:29:03;;;;;;;14.68;8.85;;;;;;;4.41;100.00;95496.47;10239486;29;20103;-70
2021/10/03 04:34:04;;;;;;;17.88;8.45;;;;;;;4.56;100.00;95494.34;10239505;29;20154;-74
2021/10/03 04:39:05;;;;;;;14.75;6.88;;;;;;;4.57;100.00;95503.13;10230584;28;20107;-73
2021/10/03 04:44:05;;;;;;;14.80;8.65;;;;;;;4.63;100.00;95512.91;10239033;29;20546;-72
2021/10/03 04:49:05;;;;;;;13.73;8.95;;;;;;;4.74;100.00;95520.19;10238924;29;20071;-70
2021/10/03 04:54:06;;;;;;;14.85;8.20;;;;;;;4.77;100.00;95518.94;10239968;28;20596;-73
2021/10/03 04:59:06;;;;;;;13.00;8.88;;;;;;;4.88;100.00;95517.44;10238563;28;20037;-73
2021/10/03 05:04:07;;;;;;;14.15;7.65;;;;;;;4.93;100.00;95523.72;10236691;28;20069;-75
2021/10/03 05:09:07;;;;;;;15.25;8.77;;;;;;;5.03;100.00;95533.09;10240282;28;20393;-70
2021/10/03 05:14:08;;;;;;;14.02;8.88;;;;;;;5.14;100.00;95530.50;10238011;28;20647;-70
2021/10/03 05:19:08;;;;;;;13.40;8.47;;;;;;;5.17;100.00;95539.13;10238300;28;20023;-77
2021/10/03 05:24:08;;;;;;;16.83;8.43;;;;;;;5.20;100.00;95536.81;10237988;28;20861;-70
2021/10/03 05:29:09;;;;;;;12.68;7.72;;;;;;;5.28;100.00;95536.53;10237036;28;20031;-70
2021/10/03 05:34:10;;;;;;;12.23;8.30;;;;;;;5.33;100.00;95538.56;10237075;28;20071;-72
2021/10/03 05:39:10;;;;;;;18.42;8.88;;;;;;;5.53;100.00;95543.69;10236734;28;20015;-72
2021/10/03 05:44:10;;;;;;;14.02;8.98;;;;;;;5.76;100.00;95542.19;10237646;28;20024;-70
2021/10/03 05:49:11;;;;;;;13.75;8.65;;;;;;;6.05;100.00;95539.84;10237080;28;20130;-70
2021/10/03 05:54:11;;;;;;;12.75;8.07;;;;;;;6.26;100.00;95541.22;10236374;28;20035;-71
2021/10/03 05:59:13;;;;;;;18.08;9.68;;;;;;;6.57;100.00;95542.03;10237114;29;20031;-75
2021/10/03 06:04:13;;;;;;;17.35;8.75;;;;;;;6.95;100.00;95544.34;10236761;28;20676;-73
2021/10/03 06:09:13;;;;;;;16.77;9.88;;;;;;;7.20;100.00;95546.00;10236191;28;20024;-75
2021/10/03 06:14:14;;;;;;;18.98;9.38;;;;;;;7.72;100.00;95536.41;10263101;28;20027;-69
2021/10/03 06:19:15;;;;;;;12.93;8.02;;;;;;;8.15;100.00;95535.97;10251051;28;20482;-70
2021/10/03 06:24:18;;;;;;;17.85;9.20;;;;;;;8.59;100.00;95540.84;10249902;28;20027;-70
2021/10/03 06:29:18;;;;;;;12.18;8.35;;;;;;;9.14;100.00;95533.16;10250041;28;20219;-73
2021/10/03 06:34:19;;;;;;;14.45;9.13;;;;;;;9.79;100.00;95526.34;10248676;28;20135;-72
2021/10/03 06:39:19;;;;;;;14.87;8.17;;;;;;;10.01;100.00;95538.97;10244853;28;20027;-75
2021/10/03 06:44:19;;;;;;;11.60;7.73;;;;;;;10.15;100.00;95534.84;10221784;29;21007;-73
2021/10/03 06:49:20;;;;;;;17.67;7.85;;;;;;;10.29;100.00;95523.72;10248821;28;20279;-75
2021/10/03 06:54:20;;;;;;;11.75;7.40;;;;;;;10.51;100.00;95531.78;10247844;28;20030;-72
2021/10/03 06:59:21;;;;;;;15.40;7.25;;;;;;;10.85;100.00;95528.88;10249608;28;20102;-73
2021/10/03 07:04:21;;;;;;;18.00;7.87;;;;;;;11.04;100.00;95535.50;10250139;28;20031;-70
2021/10/03 07:09:22;;;;;;;13.23;6.03;;;;;;;11.26;100.00;95531.91;10247657;28;20301;-73
2021/10/03 07:14:22;;;;;;;11.40;5.80;;;;;;;11.54;100.00;95535.34;10240845;28;20038;-73
2021/10/03 07:19:23;;;;;;;10.18;6.13;;;;;;;12.00;100.00;95541.03;10211303;28;20283;-74
2021/10/03 07:24:25;;;;;;;14.15;6.63;;;;;;;12.21;96.16;95539.25;10222782;28;20055;-73
2021/10/03 07:29:25;;;;;;;11.67;5.53;;;;;;;12.16;90.53;95536.53;10242123;28;20035;-74
2021/10/03 07:34:26;;;;;;;8.18;5.32;;;;;;;12.24;87.18;95540.59;10245264;28;20505;-67
2021/10/03 07:39:26;;;;;;;20.63;6.78;;;;;;;12.88;87.65;95541.28;10246925;29;20055;-72
2021/10/03 07:44:26;;;;;;;10.60;6.10;;;;;;;13.65;86.49;95544.03;10216795;28;20023;-72
2021/10/03 07:49:27;;;;;;;7.07;5.32;;;;;;;15.85;67.19;95545.81;10202407;29;20091;-70
2021/10/03 07:54:27;;;;;;;12.68;5.50;;;;;;;15.91;64.62;95541.97;10203045;29;20039;-75
2021/10/03 07:59:28;;;;;;;10.40;5.30;;;;;;;15.82;67.37;95544.50;10200942;29;20079;-73
2021/10/03 08:04:28;;;;;;;14.88;5.70;;;;;;;15.26;69.12;95543.06;10228850;29;20031;-72
2021/10/03 08:09:29;;;;;;;14.27;5.87;;;;;;;14.86;68.49;95548.47;10240818;28;20475;-69
2021/10/03 08:14:29;;;;;;;12.85;6.07;;;;;;;16.95;58.81;95536.09;10238730;28;20291;-70
2021/10/03 08:19:30;;;;;;;10.75;5.38;;;;;;;21.08;44.25;95525.81;10239620;29;20023;-71
2021/10/03 08:24:31;;;;;;;10.80;4.82;;;;;;;22.89;40.87;95517.75;10239074;28;20169;-72
2021/10/03 08:29:32;;;;;;;8.50;5.03;;;;;;;24.51;37.15;95513.25;10239653;28;20039;-73
2021/10/03 08:34:32;;;;;;;8.60;5.13;;;;;;;23.55;38.46;95506.91;10238910;28;20051;-70
2021/10/03 08:39:32;;;;;;;11.90;6.03;;;;;;;21.65;39.94;95514.69;10240584;29;20043;-74
2021/10/03 08:44:33;;;;;;;12.83;6.87;;;;;;;20.24;44.27;95523.84;10208387;29;20848;-73
2021/10/03 08:49:34;;;;;;;11.82;5.60;;;;;;;19.30;45.28;95519.13;10210944;29;20291;-70
2021/10/03 08:54:39;;;;;;;23.75;6.43;;;;;;;18.13;48.26;95515.13;10236641;29;20413;-74
2021/10/03 09:00:20;;;;;;;11.75;6.13;;;;;;;18.49;47.69;95510.84;10238735;28;20126;-76
2021/10/03 09:05:22;;;;;;;10.38;6.00;;;;;;;17.98;48.96;95504.53;10232400;29;20042;-73
2021/10/03 09:10:23;;;;;;;13.25;5.72;;;;;;;18.16;49.99;95506.34;10220909;28;20043;-76
2021/10/03 09:15:24;;;;;;;16.00;6.65;;;;;;;17.90;50.95;95490.50;10237311;28;20490;-76
2021/10/03 09:20:26;;;;;;;14.45;5.55;;;;;;;19.31;46.86;95489.94;10228478;29;20052;-75
2021/10/03 09:25:34;;;;;;;20.20;6.18;;;;;;;19.78;45.60;95484.16;10228024;29;20417;-71
2021/10/03 09:30:36;;;;;;;8.23;4.50;;;;;;;20.27;43.06;95482.25;10194439;29;20483;-73
2021/10/03 09:35:36;;;;;;;10.25;4.28;;;;;;;20.66;43.03;95475.13;10205062;29;20043;-76
2021/10/03 09:40:37;;;;;;;10.03;5.10;;;;;;;21.98;39.79;95470.34;10233042;28;20019;-71
2021/10/03 09:45:37;;;;;;;12.40;4.68;;;;;;;22.34;39.59;95473.75;10228460;28;20305;-74
2021/10/03 09:50:40;;;;;;;9.23;4.50;;;;;;;22.18;39.25;95463.31;10238674;28;20498;-69
2021/10/03 09:55:41;;;;;;;10.77;4.32;;;;;;;22.64;38.42;95458.09;10218106;28;20287;-74
2021/10/03 10:00:42;;;;;;;8.45;3.88;;;;;;;23.91;37.75;95457.94;10223152;29;20581;-68
2021/10/03 10:05:42;;;;;;;5.68;2.85;;;;;;;26.82;33.14;95447.13;10235123;28;20037;-68
2021/10/03 10:10:43;;;;;;;3.88;2.13;;;;;;;29.43;27.91;95426.22;10234601;29;20031;-73
2021/10/03 10:15:43;;;;;;;4.43;2.10;;;;;;;31.52;25.44;95414.69;10236816;28;20031;-74
2021/10/03 10:20:44;;;;;;;6.35;1.63;;;;;;;32.15;23.98;95403.31;10234378;29;20027;-73
2021/10/03 10:25:54;;;;;;;5.37;1.90;;;;;;;32.51;23.27;95402.47;10219267;29;20413;-72
2021/10/03 10:31:13;;;;;;;5.00;2.00;;;;;;;30.84;25.12;95381.88;10234451;28;20632;-71
2021/10/03 10:36:15;;;;;;;6.68;2.13;;;;;;;32.23;23.78;95383.81;10233879;29;20637;-73
2021/10/03 10:41:34;;;;;;;6.95;2.05;;;;;;;33.21;23.59;95369.25;10234505;29;20027;-73
2021/10/03 10:46:53;;;;;;;6.80;2.13;;;;;;;33.60;22.33;95363.91;10234748;28;20031;-73
2021/10/03 10:52:22;;;;;;;4.95;1.75;;;;;;;33.10;23.15;95356.56;10234254;29;20513;-74
2021/10/03 10:57:22;;;;;;;5.13;2.33;;;;;;;33.46;22.76;95359.19;10222210;28;20028;-72
2021/10/03 11:02:52;;;;;;;5.13;1.50;;;;;;;33.29;21.82;95347.75;10250541;28;20054;-70
2021/10/03 11:08:19;;;;;;;4.55;1.95;;;;;;;31.25;24.38;95332.88;10223864;28;20564;-74
2021/10/03 11:13:38;;;;;;;3.70;2.65;;;;;;;27.83;27.14;95341.44;10202349;29;20038;-69
2021/10/03 11:18:48;;;;;;;4.50;2.30;;;;;;;24.82;30.25;95351.63;10253036;28;20041;-70
2021/10/03 11:23:49;;;;;;;2.75;2.10;;;;;;;23.35;32.03;95338.47;10262542;28;20031;-72
2021/10/03 11:28:51;;;;;;;7.53;2.40;;;;;;;22.30;34.57;95338.63;10260564;28;20031;-71
2021/10/03 11:33:51;;;;;;;3.33;2.20;;;;;;;21.38;34.87;95331.81;10260228;28;20138;-69
2021/10/03 11:38:52;;;;;;;6.80;2.22;;;;;;;20.56;36.70;95322.50;10259735;28;20385;-68
2021/10/03 11:43:53;;;;;;;5.38;2.67;;;;;;;20.30;37.40;95319.78;10258879;28;20485;-69
2021/10/03 11:48:53;;;;;;;7.18;2.33;;;;;;;20.02;38.32;95309.16;10259752;28;20131;-68
2021/10/03 11:53:54;;;;;;;4.40;2.50;;;;;;;20.17;38.83;95305.16;10215491;28;20112;-72
2021/10/03 11:58:57;;;;;;;4.18;2.60;;;;;;;19.82;38.58;95304.34;10223271;29;20267;-73
2021/10/03 12:03:57;;;;;;;4.82;2.47;;;;;;;19.86;38.00;95305.31;10255474;28;20047;-72
2021/10/03 12:08:58;;;;;;;4.50;2.20;;;;;;;19.79;36.77;95311.19;10222235;28;20470;-67
2021/10/03 12:14:02;;;;;;;2.38;1.77;;;;;;;19.68;35.04;95305.22;10183886;29;20350;-69
2021/10/03 12:19:07;;;;;;;6.82;3.15;;;;;;;19.63;37.69;95295.28;10200938;29;20512;-75
2021/10/03 12:24:08;;;;;;;4.72;2.60;;;;;;;19.71;35.73;95298.34;10219885;29;20023;-73
2021/10/03 12:29:14;;;;;;;3.83;2.20;;;;;;;19.80;34.73;95285.53;10239306;28;20110;-70
2021/10/03 12:34:14;;;;;;;4.13;2.13;;;;;;;19.67;35.52;95281.00;10237866;28;20051;-72
2021/10/03 12:39:18;;;;;;;6.23;2.73;;;;;;;19.80;35.95;95283.63;10238600;29;20401;-73
2021/10/03 12:44:39;;;;;;;2.95;1.90;;;;;;;19.89;35.99;95270.00;10238451;29;20282;-74
2021/10/03 12:49:40;;;;;;;6.80;3.00;;;;;;;19.95;35.75;95274.19;10236885;29;20625;-69
2021/10/03 12:54:44;;;;;;;6.07;2.13;;;;;;;19.89;35.13;95270.00;10211966;29;20035;-71
2021/10/03 12:59:45;;;;;;;2.92;1.92;;;;;;;19.88;36.49;95265.66;10252633;28;20157;-72
2021/10/03 13:04:45;;;;;;;5.28;2.22;;;;;;;19.82;35.47;95263.44;10216295;28;20038;-72
2021/10/03 13:09:45;;;;;;;4.63;2.10;;;;;;;19.63;36.87;95270.75;10198886;29;20026;-73
2021/10/03 13:14:47;;;;;;;7.30;2.75;;;;;;;19.52;36.46;95261.25;10198923;29;20770;-72
2021/10/03 13:19:47;;;;;;;3.38;2.17;;;;;;;19.60;34.71;95262.38;10234626;29;20030;-75
2021/10/03 13:24:47;;;;;;;5.57;2.92;;;;;;;19.55;36.58;95260.63;10235942;28;20387;-72
2021/10/03 13:29:48;;;;;;;4.87;2.27;;;;;;;19.53;36.65;95265.56;10233561;28;20035;-70
2021/10/03 13:34:48;;;;;;;5.20;2.00;;;;;;;19.50;37.15;95262.69;10235695;29;20504;-72
2021/10/03 13:39:49;;;;;;;3.55;2.22;;;;;;;19.53;38.47;95267.50;10216274;29;20031;-69
2021/10/03 13:44:49;;;;;;;2.97;2.10;;;;;;;19.55;39.79;95266.06;10197799;29;20028;-67
2021/10/03 13:49:50;;;;;;;4.40;2.10;;;;;;;19.56;37.42;95262.22;10183158;29;20279;-74
2021/10/03 13:54:50;;;;;;;4.32;2.40;;;;;;;19.57;37.79;95261.09;10236547;28;20039;-72
2021/10/03 13:59:51;;;;;;;4.20;2.28;;;;;;;19.46;38.14;95260.56;10221392;28;20039;-74
2021/10/03 14:04:51;;;;;;;4.53;2.37;;;;;;;19.46;38.39;95263.31;10207782;29;20038;-68
2021/10/03 14:09:52;;;;;;;4.67;2.60;;;;;;;19.42;38.72;95253.34;10206822;29;20290;-72
2021/10/03 14:14:53;;;;;;;2.33;1.63;;;;;;;19.34;36.39;95254.97;10209361;29;20306;-74
2021/10/03 14:19:53;;;;;;;5.20;1.95;;;;;;;19.33;38.08;95249.81;10237816;28;20270;-68
2021/10/03 14:24:55;;;;;;;5.13;1.90;;;;;;;19.18;35.61;95254.56;10233133;28;20604;-74
2021/10/03 14:29:56;;;;;;;4.93;1.67;;;;;;;19.17;35.80;95249.44;10233865;28;20043;-70
2021/10/03 14:34:58;;;;;;;3.58;2.10;;;;;;;19.11;35.92;95256.94;10238625;28;20035;-71
2021/10/03 14:39:58;;;;;;;3.58;1.67;;;;;;;19.09;36.05;95253.75;10242081;29;20019;-69
2021/10/03 14:44:59;;;;;;;3.10;1.52;;;;;;;19.00;34.19;95250.97;10203639;29;20023;-70
2021/10/03 14:50:00;;;;;;;3.38;1.67;;;;;;;18.92;36.65;95255.28;10203296;29;20409;-73
2021/10/03 14:55:01;;;;;;;3.22;2.10;;;;;;;18.81;39.02;95250.38;10203218;29;20039;-75
2021/10/03 15:00:03;;;;;;;2.20;1.80;;;;;;;18.69;38.05;95251.75;10202774;29;20630;-70
2021/10/03 15:05:06;;;;;;;2.78;1.70;;;;;;;18.56;37.78;95247.22;10202229;29;20059;-72
2021/10/03 15:10:10;;;;;;;4.25;1.75;;;;;;;18.45;37.14;95254.84;10202207;29;20034;-76
2021/10/03 15:15:12;;;;;;;8.02;2.05;;;;;;;18.40;35.86;95255.75;10202027;29;20386;-75
2021/10/03 15:20:17;;;;;;;3.38;2.47;;;;;;;18.36;39.57;95264.84;10202049;29;20024;-74
2021/10/03 15:25:21;;;;;;;3.90;2.50;;;;;;;18.23;43.50;95270.03;10185943;29;20023;-72
2021/10/03 15:30:21;;;;;;;5.35;2.88;;;;;;;17.98;45.75;95271.44;10201469;29;20084;-75
2021/10/03 15:35:22;;;;;;;5.57;3.13;;;;;;;17.87;46.45;95280.91;10205736;29;20508;-68
2021/10/03 15:40:22;;;;;;;7.90;3.87;;;;;;;17.71;47.76;95288.59;10240651;29;20070;-73
2021/10/03 15:45:23;;;;;;;12.93;4.63;;;;;;;17.42;49.72;95279.66;10240954;28;20504;-69
2021/10/03 15:50:25;;;;;;;11.48;4.07;;;;;;;17.12;52.69;95283.00;10256113;28;20027;-74
2021/10/03 15:55:25;;;;;;;12.90;4.45;;;;;;;16.86;55.44;95291.59;10241750;28;20073;-74
2021/10/03 16:00:26;;;;;;;6.75;4.43;;;;;;;16.67;57.28;95284.31;10239904;29;20027;-72
2021/10/03 16:05:26;;;;;;;12.57;4.27;;;;;;;16.53;62.27;95295.13;10239992;29;20039;-69
2021/10/03 16:10:27;;;;;;;17.65;5.85;;;;;;;16.44;60.54;95301.53;10240206;29;20877;-71
2021/10/03 16:15:27;;;;;;;11.75;5.68;;;;;;;15.99;65.48;95313.59;10239570;29;20023;-72
2021/10/03 16:20:28;;;;;;;8.35;5.25;;;;;;;15.78;66.74;95307.66;10238998;29;20516;-74
2021/10/03 16:25:29;;;;;;;11.25;6.00;;;;;;;15.52;69.47;95321.50;10236161;29;20432;-71
2021/10/03 16:30:29;;;;;;;11.98;6.53;;;;;;;15.55;70.41;95326.34;10227815;29;20102;-68
2021/10/03 16:35:29;;;;;;;11.43;6.17;;;;;;;15.45;72.51;95329.19;10221978;29;20050;-73
2021/10/03 16:40:30;;;;;;;11.07;6.50;;;;;;;15.31;71.83;95334.50;10240388;28;20274;-73
2021/10/03 16:45:31;;;;;;;10.10;6.13;;;;;;;15.31;66.62;95348.03;10237503;29;20274;-73
2021/10/03 16:50:33;;;;;;;9.35;6.03;;;;;;;15.12;69.47;95345.25;10250693;28;20069;-76
2021/10/03 16:55:34;;;;;;;12.32;6.28;;;;;;;15.01;75.84;95346.44;10205190;28;20062;-70
2021/10/03 17:00:35;;;;;;;11.07;6.55;;;;;;;14.92;76.05;95353.59;10215909;29;20560;-74
2021/10/03 17:05:35;;;;;;;10.48;4.95;;;;;;;14.72;75.24;95344.56;10221650;29;20034;-74
2021/10/03 17:10:36;;;;;;;9.63;5.20;;;;;;;14.60;73.93;95341.41;10237413;28;20736;-73
2021/10/03 17:15:36;;;;;;;8.45;4.80;;;;;;;14.32;73.64;95354.59;10237593;28;20290;-72
2021/10/03 17:20:37;;;;;;;9.57;5.50;;;;;;;14.25;71.97;95354.09;10197269;29;20027;-70
2021/10/03 17:25:38;;;;;;;7.68;5.00;;;;;;;14.17;72.13;95366.31;10197996;29;20038;-75
2021/10/03 17:30:38;;;;;;;15.57;5.80;;;;;;;14.00;74.16;95380.19;10196130;29;20094;-69
2021/10/03 17:35:39;;;;;;;10.17;5.70;;;;;;;13.78;77.65;95375.97;10204282;29;20581;-74
2021/10/03 17:40:40;;;;;;;15.07;5.35;;;;;;;13.68;75.79;95387.63;10237070;29;20273;-73
2021/10/03 17:45:40;;;;;;;9.85;4.70;;;;;;;13.71;68.72;95378.16;10219736;29;20050;-75
2021/10/03 17:50:41;;;;;;;14.32;4.70;;;;;;;13.64;67.80;95394.66;10235621;29;20039;-71
2021/10/03 17:55:41;;;;;;;5.18;3.63;;;;;;;13.55;67.16;95395.50;10236433;29;20114;-73
2021/10/03 18:00:42;;;;;;;6.95;3.80;;;;;;;13.60;63.31;95390.91;10235320;29;20669;-73
2021/10/03 18:05:42;;;;;;;9.23;4.10;;;;;;;13.49;66.09;95398.25;10235017;29;20174;-74
2021/10/03 18:10:43;;;;;;;9.05;4.65;;;;;;;13.43;69.24;95399.31;10231392;28;20559;-70
2021/10/03 18:15:44;;;;;;;9.40;5.28;;;;;;;13.32;71.72;95411.22;10235792;28;20038;-73
2021/10/03 18:20:45;;;;;;;9.32;5.00;;;;;;;13.08;74.72;95416.38;10235477;28;20019;-74
2021/10/03 18:25:45;;;;;;;9.65;4.97;;;;;;;12.91;76.89;95422.88;10234500;28;20338;-74
2021/10/03 18:30:46;;;;;;;11.75;5.50;;;;;;;12.75;78.55;95421.25;10207492;28;20444;-74
2021/10/03 18:35:47;;;;;;;10.95;5.50;;;;;;;12.60;78.85;95425.56;10195030;28;20087;-70
2021/10/03 18:40:47;;;;;;;8.82;4.95;;;;;;;12.44;78.13;95438.22;10196561;29;20119;-75
2021/10/03 18:45:48;;;;;;;8.02;4.90;;;;;;;12.39;76.77;95435.53;10195099;29;20032;-73
2021/10/03 18:50:48;;;;;;;6.70;4.47;;;;;;;12.28;78.10;95428.50;10225519;29;20035;-71
2021/10/03 18:55:48;;;;;;;11.45;5.10;;;;;;;12.17;80.20;95437.63;10251328;28;20066;-69
2021/10/03 19:00:49;;;;;;;9.05;5.07;;;;;;;12.07;80.44;95427.63;10251000;28;20577;-74
2021/10/03 19:05:50;;;;;;;7.88;4.97;;;;;;;11.90;82.24;95435.88;10227203;29;20039;-69
2021/10/03 19:10:50;;;;;;;11.07;4.80;;;;;;;11.81;84.11;95438.28;10233951;28;20034;-68
2021/10/03 19:15:50;;;;;;;11.85;4.70;;;;;;;11.76;84.52;95441.78;10234760;28;20031;-70
2021/10/03 19:20:51;;;;;;;10.70;5.88;;;;;;;11.55;86.38;95448.94;10237410;28;20027;-69
2021/10/03 19:25:51;;;;;;;10.10;5.57;;;;;;;11.50;86.50;95440.00;10240715;28;20027;-68
2021/10/03 19:30:52;;;;;;;6.50;4.50;;;;;;;11.57;85.08;95451.38;10240765;28;20825;-69
2021/10/03 19:35:52;;;;;;;8.05;4.65;;;;;;;11.56;85.39;95450.56;10369553;23;20326;-75
2021/10/03 19:40:53;;;;;;;11.07;4.35;;;;;;;11.50;84.96;95440.00;10252816;28;20077;-74
2021/10/03 19:45:56;;;;;;;6.82;4.30;;;;;;;11.39;88.17;95449.94;10250517;28;20034;-73
2021/10/03 19:50:56;;;;;;;8.13;4.35;;;;;;;11.27;90.03;95452.81;10280147;28;20090;-70
2021/10/03 19:55:56;;;;;;;7.40;4.03;;;;;;;11.14;91.46;95461.34;10281634;28;20648;-69
2021/10/03 20:00:58;;;;;;;9.73;4.37;;;;;;;11.14;90.77;95455.97;10296728;28;20054;-76
2021/10/03 20:05:58;;;;;;;4.63;2.75;;;;;;;11.14;91.74;95464.84;10294365;28;20282;-68
2021/10/03 20:11:00;;;;;;;2.08;1.25;;;;;;;11.10;92.78;95463.72;10279019;28;20026;-70
2021/10/03 20:16:01;;;;;;;7.82;2.15;;;;;;;11.01;94.20;95476.88;10279971;28;20057;-74
2021/10/03 20:21:03;;;;;;;3.30;2.22;;;;;;;10.90;95.98;95475.97;10279746;28;20037;-72
2021/10/03 20:26:04;;;;;;;2.47;1.42;;;;;;;10.88;96.42;95477.28;10262396;28;20030;-68
2021/10/03 20:31:05;;;;;;;3.78;1.77;;;;;;;10.91;96.94;95476.75;10290280;28;20620;-73
2021/10/03 20:36:05;;;;;;;4.43;1.92;;;;;;;10.85;98.69;95483.19;10269301;28;20055;-69
2021/10/03 20:41:06;;;;;;;3.58;2.20;;;;;;;10.83;99.87;95474.53;10254153;28;20019;-71
2021/10/03 20:46:06;;;;;;;1.90;1.52;;;;;;;10.78;100.00;95486.88;10262685;28;20033;-74
2021/10/03 20:51:06;;;;;;;4.93;1.77;;;;;;;10.68;100.00;95483.31;10278980;28;20341;-74
2021/10/03 20:56:07;;;;;;;1.85;1.55;;;;;;;10.60;100.00;95479.19;10278605;28;20023;-72
2021/10/03 21:01:07;;;;;;;2.30;1.55;;;;;;;10.47;100.00;95485.78;10278225;28;20602;-73
2021/10/03 21:06:08;;;;;;;3.67;1.80;;;;;;;10.43;100.00;95477.41;10262265;28;20057;-72
2021/10/03 21:11:08;;;;;;;3.30;1.50;;;;;;;10.39;100.00;95488.94;10277169;28;20063;-69
2021/10/03 21:16:10;;;;;;;5.53;2.28;;;;;;;10.43;100.00;95479.31;10261240;28;20267;-73
2021/10/03 21:21:10;;;;;;;5.43;1.88;;;;;;;10.42;100.00;95485.72;10277132;28;20030;-73
2021/10/03 21:26:11;;;;;;;4.75;2.25;;;;;;;10.36;100.00;95476.81;10277946;28;20543;-67
2021/10/03 21:31:11;;;;;;;3.40;2.22;;;;;;;10.41;100.00;95482.25;10277754;28;20035;-72
2021/10/03 21:36:12;;;;;;;3.38;1.63;;;;;;;10.44;100.00;95478.25;10265356;28;20539;-69
2021/10/03 21:41:12;;;;;;;3.22;1.85;;;;;;;10.46;100.00;95478.78;10252238;28;20074;-68
2021/10/03 21:46:12;;;;;;;3.90;1.90;;;;;;;10.22;100.00;95478.25;10236846;28;20050;-69
2021/10/03 21:51:13;;;;;;;3.67;2.27;;;;;;;10.22;100.00;95489.00;10237082;28;20467;-72
2021/10/03 21:56:13;;;;;;;7.00;1.88;;;;;;;10.17;100.00;95483.56;10255188;28;20283;-69
2021/10/03 22:01:15;;;;;;;4.90;2.45;;;;;;;10.04;100.00;95476.72;10236924;28;20409;-71
2021/10/03 22:06:16;;;;;;;5.70;2.03;;;;;;;10.13;100.00;95477.06;10252161;28;20034;-73
2021/10/03 22:11:18;;;;;;;2.35;1.88;;;;;;;10.04;100.00;95482.06;10251490;28;20430;-72
2021/10/03 22:16:18;;;;;;;2.78;1.30;;;;;;;10.13;100.00;95491.31;10251761;28;20089;-72
2021/10/03 22:21:19;;;;;;;2.53;1.85;;;;;;;10.01;100.00;95486.06;10291346;28;20489;-73
2021/10/03 22:26:22;;;;;;;3.05;2.50;;;;;;;9.90;100.00;95493.19;10275612;28;20054;-72
2021/10/03 22:31:23;;;;;;;4.30;2.22;;;;;;;9.76;100.00;95494.63;10274491;28;20521;-73
2021/10/03 22:36:24;;;;;;;3.65;1.90;;;;;;;9.68;100.00;95495.84;10262568;28;20054;-70
2021/10/03 22:41:25;;;;;;;4.72;2.33;;;;;;;9.53;100.00;95509.06;10235073;28;20540;-76
2021/10/03 22:46:26;;;;;;;4.75;2.33;;;;;;;9.38;100.00;95509.69;10250804;28;20038;-72
2021/10/03 22:51:26;;;;;;;4.88;2.33;;;;;;;9.28;100.00;95517.56;10235510;28;20027;-73
2021/10/03 22:56:26;;;;;;;4.63;2.17;;;;;;;9.18;100.00;95516.38;10266048;28;20547;-76
2021/10/03 23:01:27;;;;;;;3.87;2.40;;;;;;;9.30;100.00;95518.94;10281994;28;20332;-73
2021/10/03 23:06:29;;;;;;;6.07;2.70;;;;;;;9.33;100.00;95518.44;10281598;28;20277;-66
2021/10/03 23:11:29;;;;;;;3.97;2.30;;;;;;;9.36;100.00;95517.16;10281650;28;20106;-72